createdAt,value
2018-09-26T00:01:45.022Z,87.53
2018-09-26T00:06:42.511Z,87.55
2018-09-26T00:11:39.958Z,86.42
2018-09-26T00:16:38.143Z,87.18
2018-09-26T00:21:35.560Z,86.89
2018-09-26T00:26:33.070Z,87.32
2018-09-26T00:31:30.498Z,87.71
2018-09-26T00:36:27.921Z,87.91
2018-09-26T00:41:25.413Z,88.28
2018-09-26T00:46:22.824Z,88.13
2018-09-26T00:51:20.267Z,85.74
2018-09-26T00:56:17.687Z,85.91
2018-09-26T01:01:15.141Z,86.15
2018-09-26T01:06:12.555Z,86.36
2018-09-26T01:11:10.059Z,85.97
2018-09-26T01:16:07.483Z,85.41
2018-09-26T01:21:04.911Z,86.73
2018-09-26T01:26:02.347Z,87.03
2018-09-26T01:30:59.791Z,86.02
2018-09-26T01:35:57.204Z,86.75
2018-09-26T01:40:54.608Z,87.41
2018-09-26T01:45:52.022Z,87.15
2018-09-26T01:50:49.436Z,87.18
2018-09-26T01:55:46.905Z,86.63
2018-09-26T02:00:44.336Z,85.22
2018-09-26T02:05:41.758Z,85.44
2018-09-26T02:10:39.186Z,85.70
2018-09-26T02:15:36.623Z,85.11
2018-09-26T02:20:34.070Z,85.32
2018-09-26T02:25:32.983Z,86.62
2018-09-26T02:30:30.413Z,83.79
2018-09-26T02:35:27.839Z,83.81
2018-09-26T02:40:25.248Z,86.22
2018-09-26T02:45:22.695Z,86.52
2018-09-26T02:50:20.112Z,87.56
2018-09-26T02:55:17.558Z,87.04
2018-09-26T03:00:14.996Z,84.54
2018-09-26T03:05:12.400Z,86.47
2018-09-26T03:10:09.816Z,86.30
2018-09-26T03:15:07.235Z,85.87
2018-09-26T03:20:04.959Z,85.42
2018-09-26T03:25:02.384Z,84.71
2018-09-26T03:29:59.816Z,86.40
2018-09-26T03:34:57.235Z,86.11
2018-09-26T03:39:54.655Z,87.12
2018-09-26T03:44:52.061Z,87.06
2018-09-26T03:49:49.478Z,85.95
2018-09-26T03:54:50.874Z,85.97
2018-09-26T03:59:48.407Z,87.13
2018-09-26T04:04:45.839Z,87.73
2018-09-26T04:09:43.230Z,87.43
2018-09-26T04:14:40.640Z,88.04
2018-09-26T04:19:38.072Z,88.29
2018-09-26T04:24:36.727Z,88.88
2018-09-26T04:29:34.167Z,87.48
2018-09-26T04:34:35.891Z,87.96
2018-09-26T04:39:33.927Z,87.56
2018-09-26T04:44:31.811Z,86.66
2018-09-26T04:49:29.233Z,86.77
2018-09-26T04:54:28.922Z,87.50
2018-09-26T04:59:26.396Z,87.26
2018-09-26T05:04:23.865Z,85.91
2018-09-26T05:09:21.310Z,86.69
2018-09-26T05:14:18.704Z,86.58
2018-09-26T05:19:16.200Z,87.07
2018-09-26T05:24:20.054Z,87.02
2018-09-26T05:29:17.523Z,86.29
2018-09-26T05:34:14.992Z,86.93
2018-09-26T05:39:12.463Z,82.24
2018-09-26T05:44:10.200Z,77.24
2018-09-26T05:49:08.323Z,77.66
2018-09-26T05:54:29.604Z,79.71
2018-09-26T05:59:27.159Z,81.27
2018-09-26T06:04:24.619Z,81.71
2018-09-26T06:09:22.099Z,81.40
2018-09-26T06:14:19.616Z,81.28
2018-09-26T06:19:17.086Z,80.92
2018-09-26T06:24:18.278Z,80.12
2018-09-26T06:29:15.781Z,78.25
2018-09-26T06:34:13.271Z,76.72
2018-09-26T06:39:11.778Z,77.18
2018-09-26T06:44:09.225Z,75.82
2018-09-26T06:49:06.684Z,74.37
2018-09-26T06:54:11.889Z,73.98
2018-09-26T06:59:09.500Z,74.15
2018-09-26T07:04:06.999Z,72.17
2018-09-26T07:09:06.726Z,71.44
2018-09-26T07:14:04.160Z,70.49
2018-09-26T07:19:01.587Z,68.68
2018-09-26T07:24:08.932Z,69.39
2018-09-26T07:29:06.935Z,67.60
2018-09-26T07:34:04.355Z,68.68
2018-09-26T07:39:01.868Z,68.39
2018-09-26T07:43:59.325Z,65.74
2018-09-26T07:48:56.752Z,66.59
2018-09-26T07:54:05.089Z,65.40
2018-09-26T07:59:02.615Z,66.27
2018-09-26T08:04:00.183Z,64.75
2018-09-26T08:08:57.616Z,63.71
2018-09-26T08:13:55.063Z,62.37
2018-09-26T08:18:52.562Z,61.25
2018-09-26T08:28:54.828Z,58.17
2018-09-26T08:33:52.280Z,59.61
2018-09-26T08:38:49.731Z,58.11
2018-09-26T08:43:49.030Z,57.58
2018-09-26T08:48:51.457Z,56.41
2018-09-26T08:53:54.794Z,55.44
2018-09-26T08:58:55.098Z,54.84
2018-09-26T09:03:54.204Z,54.22
2018-09-26T09:08:51.690Z,52.91
2018-09-26T09:13:49.112Z,51.92
2018-09-26T09:18:47.332Z,53.46
2018-09-26T09:23:48.267Z,52.01
2018-09-26T09:28:45.713Z,50.70
2018-09-26T09:33:43.185Z,51.30
2018-09-26T09:38:41.377Z,50.79
2018-09-26T09:43:40.033Z,51.19
2018-09-26T09:48:37.433Z,50.97
2018-09-26T09:53:38.064Z,50.71
2018-09-26T09:58:35.557Z,50.15
2018-09-26T10:03:33.012Z,49.87
2018-09-26T10:08:33.863Z,49.42
2018-09-26T10:13:33.243Z,50.45
2018-09-26T10:18:35.048Z,48.88
2018-09-26T10:23:36.172Z,49.19
2018-09-26T10:28:35.771Z,50.69
2018-09-26T10:33:33.796Z,49.14
2018-09-26T10:38:33.780Z,47.62
2018-09-26T10:43:31.244Z,49.08
2018-09-26T10:48:28.844Z,48.04
2018-09-26T10:53:26.277Z,49.39
2018-09-26T10:58:23.768Z,48.22
2018-09-26T11:03:21.200Z,48.37
2018-09-26T11:08:18.947Z,49.00
2018-09-26T11:13:16.400Z,48.48
2018-09-26T11:18:13.887Z,48.38
2018-09-26T11:23:11.360Z,47.11
2018-09-26T11:28:08.848Z,46.55
2018-09-26T11:33:06.388Z,46.76
2018-09-26T11:38:03.881Z,47.95
2018-09-26T11:43:02.011Z,49.24
2018-09-26T11:48:00.382Z,45.96
2018-09-26T11:52:59.044Z,45.71
2018-09-26T11:57:56.516Z,46.90
2018-09-26T12:02:53.985Z,45.23
2018-09-26T12:07:51.863Z,44.96
2018-09-26T12:12:49.500Z,44.73
2018-09-26T12:18:58.903Z,45.21
2018-09-26T12:24:00.222Z,44.24
2018-09-26T12:28:58.380Z,44.60
2018-09-26T12:33:56.419Z,46.14
2018-09-26T12:39:02.908Z,43.98
2018-09-26T12:44:05.667Z,43.38
2018-09-26T12:49:11.676Z,43.43
2018-09-26T12:54:28.210Z,43.72
2018-09-26T12:59:32.072Z,42.61
2018-09-26T13:04:31.857Z,44.42
2018-09-26T13:14:40.614Z,41.00
2018-09-26T13:19:40.102Z,41.94
2018-09-26T13:24:40.831Z,42.53
2018-09-26T13:29:46.339Z,41.09
2018-09-26T13:34:46.037Z,42.80
2018-09-26T13:39:45.303Z,40.32
2018-09-26T13:44:45.063Z,41.93
2018-09-26T13:49:47.657Z,42.52
2018-09-26T13:54:51.157Z,41.94
2018-09-26T13:59:48.692Z,40.83
2018-09-26T14:04:46.136Z,41.03
2018-09-26T14:09:43.661Z,40.17
2018-09-26T14:14:41.121Z,41.19
2018-09-26T14:19:45.921Z,40.62
2018-09-26T14:24:50.120Z,40.18
2018-09-26T14:29:47.784Z,40.26
2018-09-26T14:34:45.473Z,39.76
2018-09-26T14:39:43.184Z,40.15
2018-09-26T14:44:40.893Z,40.79
2018-09-26T14:49:38.712Z,40.16
2018-09-26T14:54:37.019Z,39.73
2018-09-26T14:59:34.750Z,40.75
2018-09-26T15:04:32.558Z,39.23
2018-09-26T15:09:30.192Z,39.24
2018-09-26T15:14:27.896Z,39.57
2018-09-26T15:19:25.618Z,39.47
2018-09-26T15:24:29.870Z,38.53
2018-09-26T15:29:27.569Z,39.70
2018-09-26T15:34:25.290Z,38.15
2018-09-26T15:39:22.979Z,38.08
2018-09-26T15:44:20.771Z,38.21
2018-09-26T15:49:18.436Z,39.08
2018-09-26T15:54:21.303Z,39.58
2018-09-26T15:59:19.081Z,39.04
2018-09-26T16:04:24.368Z,38.97
2018-09-26T16:09:21.808Z,38.68
2018-09-26T16:14:25.894Z,40.56
2018-09-26T16:19:23.397Z,37.26
2018-09-26T16:24:28.265Z,38.96
2018-09-26T16:29:25.825Z,38.51
2018-09-26T16:34:23.281Z,38.81
2018-09-26T16:39:20.798Z,39.76
2018-09-26T16:44:18.226Z,39.12
2018-09-26T16:49:15.700Z,40.73
2018-09-26T16:54:14.477Z,40.60
2018-09-26T16:59:12.120Z,41.79
2018-09-26T17:04:09.579Z,41.38
2018-09-26T17:09:07.920Z,42.44
2018-09-26T17:14:05.404Z,42.64
2018-09-26T17:19:02.844Z,43.86
2018-09-26T17:24:10.721Z,43.21
2018-09-26T17:29:08.350Z,44.35
2018-09-26T17:34:05.817Z,44.50
2018-09-26T17:39:04.405Z,44.45
2018-09-26T17:44:01.853Z,45.03
2018-09-26T17:48:59.268Z,45.45
2018-09-26T17:54:07.873Z,46.34
2018-09-26T17:59:05.476Z,46.10
2018-09-26T18:04:02.880Z,47.63
2018-09-26T18:09:00.310Z,48.58
2018-09-26T18:13:57.738Z,50.20
2018-09-26T18:18:55.155Z,50.82
2018-09-26T18:24:04.746Z,50.68
2018-09-26T18:29:02.308Z,52.07
2018-09-26T18:33:59.724Z,52.61
2018-09-26T18:38:57.228Z,53.92
2018-09-26T18:43:54.616Z,54.87
2018-09-26T18:48:52.047Z,53.69
2018-09-26T18:53:49.824Z,56.45
2018-09-26T18:58:47.244Z,56.50
2018-09-26T19:03:44.681Z,57.19
2018-09-26T19:08:42.089Z,57.84
2018-09-26T19:13:39.624Z,58.52
2018-09-26T19:18:37.056Z,57.87
2018-09-26T19:23:34.472Z,59.07
2018-09-26T19:28:32.013Z,58.92
2018-09-26T19:33:29.425Z,59.57
2018-09-26T19:38:26.867Z,60.66
2018-09-26T19:43:24.308Z,60.44
2018-09-26T19:48:21.729Z,60.67
2018-09-26T19:53:19.146Z,61.08
2018-09-26T19:58:16.606Z,62.22
2018-09-26T20:03:14.044Z,63.04
2018-09-26T20:08:11.563Z,63.26
2018-09-26T20:13:08.939Z,64.25
2018-09-26T20:18:06.350Z,65.72
2018-09-26T20:23:03.923Z,67.69
2018-09-26T20:28:01.269Z,68.43
2018-09-26T20:32:58.711Z,66.97
2018-09-26T20:37:56.124Z,66.69
2018-09-26T20:42:53.532Z,66.54
2018-09-26T20:47:50.932Z,65.98
2018-09-26T20:52:48.342Z,65.22
2018-09-26T20:57:45.764Z,64.57
2018-09-26T21:02:43.186Z,64.10
2018-09-26T21:07:40.599Z,63.50
2018-09-26T21:12:38.040Z,63.75
2018-09-26T21:17:35.475Z,64.07
2018-09-26T21:22:32.903Z,64.96
2018-09-26T21:27:30.319Z,65.51
2018-09-26T21:32:27.739Z,65.54
2018-09-26T21:37:25.152Z,67.43
2018-09-26T21:42:22.608Z,68.14
2018-09-26T21:47:20.030Z,69.04
2018-09-26T21:52:17.442Z,69.91
2018-09-26T21:57:14.895Z,71.03
2018-09-26T22:02:12.348Z,71.99
2018-09-26T22:07:09.779Z,72.96
2018-09-26T22:12:07.229Z,73.82
2018-09-26T22:17:04.651Z,74.46
2018-09-26T22:22:02.107Z,73.98
2018-09-26T22:26:59.505Z,74.75
2018-09-26T22:31:56.912Z,75.01
2018-09-26T22:36:54.320Z,74.99
2018-09-26T22:41:51.725Z,74.51
2018-09-26T22:46:49.172Z,75.08
2018-09-26T22:51:46.583Z,74.98
2018-09-26T22:56:44.003Z,75.32
2018-09-26T23:01:41.475Z,76.09
2018-09-26T23:06:38.904Z,76.61
2018-09-26T23:11:37.857Z,76.78
2018-09-26T23:16:35.340Z,77.30
2018-09-26T23:21:32.735Z,77.56
2018-09-26T23:26:33.866Z,77.25
2018-09-26T23:31:31.263Z,77.19
2018-09-26T23:36:28.657Z,76.33
2018-09-26T23:41:26.114Z,75.27
2018-09-26T23:46:23.496Z,74.31
2018-09-26T23:51:20.980Z,74.95
2018-09-26T23:56:18.383Z,74.18
